createdAt,value
2022-10-18T00:00:30.273Z,86.33
2022-10-18T00:05:33.777Z,86.54
2022-10-18T00:10:36.757Z,86.47
2022-10-18T00:15:39.674Z,86.92
2022-10-18T00:20:44.644Z,87.05
2022-10-18T00:25:47.965Z,87.06
2022-10-18T00:36:00.706Z,87.72
2022-10-18T00:41:04.418Z,87.85
2022-10-18T00:46:07.237Z,88.13
2022-10-18T00:51:10.207Z,88.47
2022-10-18T00:56:13.540Z,88.51
2022-10-18T01:01:16.701Z,88.63
2022-10-18T01:06:19.648Z,88.59
2022-10-18T01:11:33.511Z,88.70
2022-10-18T01:17:01.278Z,88.69
2022-10-18T01:22:04.100Z,88.95
2022-10-18T01:27:35.697Z,88.74
2022-10-18T01:32:46.163Z,88.93
2022-10-18T01:37:50.839Z,89.07
2022-10-18T01:42:53.660Z,89.20
2022-10-18T01:47:56.663Z,89.33
2022-10-18T01:52:59.701Z,89.23
2022-10-18T01:58:11.462Z,89.41
2022-10-18T02:03:26.285Z,89.30
2022-10-18T02:08:46.607Z,89.32
2022-10-18T02:13:54.192Z,89.61
2022-10-18T02:19:41.696Z,89.57
2022-10-18T02:24:48.439Z,89.47
2022-10-18T02:29:52.645Z,89.43
2022-10-18T02:35:04.072Z,89.58
2022-10-18T02:40:08.817Z,89.42
2022-10-18T02:45:12.450Z,89.48
2022-10-18T02:50:15.191Z,90.02
2022-10-18T02:55:18.189Z,90.39
2022-10-18T03:00:21.069Z,90.47
2022-10-18T03:05:23.769Z,90.53
2022-10-18T03:10:26.572Z,90.90
2022-10-18T03:15:29.376Z,90.85
2022-10-18T03:20:33.194Z,91.21
2022-10-18T03:25:35.887Z,91.30
2022-10-18T03:30:41.559Z,91.40
2022-10-18T03:35:44.652Z,91.26
2022-10-18T03:40:47.416Z,91.55
2022-10-18T03:45:50.525Z,91.48
2022-10-18T03:50:53.428Z,91.78
2022-10-18T03:55:56.794Z,91.94
2022-10-18T04:00:59.593Z,91.97
2022-10-18T04:06:03.633Z,91.74
2022-10-18T04:11:08.677Z,91.83
2022-10-18T04:16:11.427Z,92.14
2022-10-18T04:21:14.632Z,91.99
2022-10-18T04:26:17.508Z,92.22
2022-10-18T04:31:21.605Z,92.15
2022-10-18T04:36:24.416Z,91.96
2022-10-18T04:41:27.233Z,91.98
2022-10-18T04:46:30.091Z,92.06
2022-10-18T04:51:32.851Z,92.08
2022-10-18T04:56:35.534Z,91.94
2022-10-18T05:01:38.152Z,91.97
2022-10-18T05:06:41.570Z,91.95
2022-10-18T05:11:44.505Z,91.83
2022-10-18T05:16:47.053Z,91.88
2022-10-18T05:21:49.947Z,91.93
2022-10-18T05:26:52.797Z,92.15
2022-10-18T05:31:55.580Z,92.15
2022-10-18T05:36:58.495Z,92.24
2022-10-18T05:42:02.494Z,92.48
2022-10-18T05:47:05.386Z,92.32
2022-10-18T05:52:08.215Z,92.51
2022-10-18T05:57:10.865Z,92.67
2022-10-18T06:02:13.836Z,92.89
2022-10-18T06:07:16.750Z,92.91
2022-10-18T06:12:19.580Z,93.30
2022-10-18T06:17:22.396Z,93.36
2022-10-18T06:22:25.194Z,93.50
2022-10-18T06:27:28.145Z,93.96
2022-10-18T06:32:31.447Z,94.15
2022-10-18T06:37:35.678Z,94.43
2022-10-18T06:42:38.726Z,94.49
2022-10-18T06:47:41.602Z,94.70
2022-10-18T06:52:44.870Z,94.47
2022-10-18T06:57:47.853Z,94.54
2022-10-18T07:02:50.644Z,93.90
2022-10-18T07:07:56.347Z,93.67
2022-10-18T07:13:19.984Z,92.92
2022-10-18T07:18:22.861Z,93.01
2022-10-18T07:23:25.732Z,90.20
2022-10-18T07:28:29.301Z,83.33
2022-10-18T07:33:32.068Z,77.84
2022-10-18T07:38:35.491Z,71.55
2022-10-18T07:43:41.926Z,68.66
2022-10-18T07:48:44.594Z,67.80
2022-10-18T07:53:47.648Z,67.96
2022-10-18T07:58:52.206Z,67.20
2022-10-18T08:03:55.087Z,67.14
2022-10-18T08:08:57.651Z,66.49
2022-10-18T08:14:00.481Z,67.09
2022-10-18T08:19:03.449Z,66.68
2022-10-18T08:24:06.448Z,66.37
2022-10-18T08:29:21.873Z,65.55
2022-10-18T08:34:27.254Z,64.08
2022-10-18T08:39:30.263Z,63.70
2022-10-18T08:44:33.781Z,61.36
2022-10-18T08:49:47.306Z,61.22
2022-10-18T08:55:10.374Z,60.32
2022-10-18T09:00:24.746Z,59.93
2022-10-18T09:05:49.571Z,59.10
2022-10-18T09:11:08.141Z,58.07
2022-10-18T09:16:20.681Z,58.52
2022-10-18T09:21:51.430Z,57.92
2022-10-18T09:27:01.299Z,57.07
2022-10-18T09:32:27.511Z,56.96
2022-10-18T09:37:32.551Z,56.71
2022-10-18T09:42:39.696Z,55.65
2022-10-18T09:47:51.239Z,56.60
2022-10-18T09:53:18.414Z,56.06
2022-10-18T09:58:24.367Z,54.15
2022-10-18T10:03:27.243Z,53.08
2022-10-18T10:08:34.500Z,52.58
2022-10-18T10:13:37.277Z,51.79
2022-10-18T10:18:40.221Z,50.96
2022-10-18T10:23:52.933Z,49.83
2022-10-18T10:28:56.143Z,49.04
2022-10-18T10:34:14.305Z,47.45
2022-10-18T10:39:19.517Z,46.81
2022-10-18T10:44:28.701Z,45.55
2022-10-18T10:49:46.050Z,43.30
2022-10-18T10:54:51.537Z,42.63
2022-10-18T10:59:57.518Z,41.62
2022-10-18T11:05:27.016Z,39.06
2022-10-18T11:10:34.558Z,36.62
2022-10-18T11:15:49.512Z,35.04
2022-10-18T11:21:08.760Z,32.89
2022-10-18T11:26:20.972Z,32.31
2022-10-18T11:31:46.182Z,31.49
2022-10-18T11:36:57.914Z,29.31
2022-10-18T11:42:28.467Z,29.49
2022-10-18T11:47:52.316Z,30.37
2022-10-18T11:53:42.678Z,30.60
2022-10-18T11:59:11.084Z,31.24
2022-10-18T12:04:23.827Z,33.20
2022-10-18T12:09:31.755Z,34.24
2022-10-18T12:14:46.155Z,35.32
2022-10-18T12:19:49.908Z,35.65
2022-10-18T12:24:52.622Z,36.30
2022-10-18T12:30:02.798Z,36.11
2022-10-18T12:35:18.315Z,36.76
2022-10-18T12:40:30.129Z,37.93
2022-10-18T12:45:35.386Z,37.43
2022-10-18T12:50:43.816Z,38.05
2022-10-18T12:55:52.185Z,38.60
2022-10-18T13:00:57.607Z,38.55
2022-10-18T13:06:04.263Z,39.24
2022-10-18T13:11:09.466Z,38.97
2022-10-18T13:16:33.791Z,39.66
2022-10-18T13:21:48.685Z,40.11
2022-10-18T13:32:48.405Z,39.50
2022-10-18T13:37:59.524Z,39.82
2022-10-18T13:43:50.175Z,39.06
2022-10-18T13:49:00.138Z,39.75
2022-10-18T13:54:12.105Z,39.92
2022-10-18T13:59:15.255Z,40.23
2022-10-18T14:04:42.715Z,40.75
2022-10-18T14:09:54.914Z,41.02
2022-10-18T14:15:04.391Z,40.31
2022-10-18T14:20:24.766Z,40.50
2022-10-18T14:25:38.241Z,40.06
2022-10-18T14:31:07.276Z,40.95
2022-10-18T14:36:16.529Z,41.81
2022-10-18T14:41:31.257Z,42.58
2022-10-18T14:46:34.576Z,43.53
2022-10-18T14:51:39.284Z,44.52
2022-10-18T14:56:42.864Z,46.33
2022-10-18T15:01:52.584Z,46.94
2022-10-18T15:06:55.566Z,47.25
2022-10-18T15:12:00.758Z,47.55
2022-10-18T15:17:08.604Z,47.20
2022-10-18T15:22:30.879Z,47.79
2022-10-18T15:27:37.264Z,48.11
2022-10-18T15:32:51.111Z,49.11
2022-10-18T15:37:55.870Z,49.92
2022-10-18T15:43:02.284Z,50.24
2022-10-18T15:48:10.915Z,51.01
2022-10-18T15:53:23.130Z,51.61
2022-10-18T15:58:51.467Z,52.03
2022-10-18T16:09:02.219Z,52.90
2022-10-18T16:14:05.057Z,53.59
2022-10-18T16:19:08.154Z,53.83
2022-10-18T16:24:11.592Z,54.55
2022-10-18T16:29:16.188Z,54.93
2022-10-18T16:34:19.538Z,55.05
2022-10-18T16:39:22.980Z,55.83
2022-10-18T16:44:26.317Z,56.36
2022-10-18T16:49:29.186Z,57.12
2022-10-18T16:54:32.013Z,57.78
2022-10-18T16:59:34.807Z,58.24
2022-10-18T17:04:37.588Z,59.17
2022-10-18T17:09:40.388Z,60.59
2022-10-18T17:14:43.201Z,60.83
2022-10-18T17:19:47.035Z,61.43
2022-10-18T17:24:50.135Z,61.82
2022-10-18T17:29:53.010Z,62.11
2022-10-18T17:34:55.902Z,62.29
2022-10-18T17:39:58.827Z,62.24
2022-10-18T17:45:01.746Z,62.65
2022-10-18T17:50:04.836Z,63.25
2022-10-18T17:55:07.977Z,63.60
2022-10-18T18:00:12.904Z,63.72
2022-10-18T18:05:15.732Z,64.09
2022-10-18T18:10:18.511Z,64.27
2022-10-18T18:15:21.533Z,65.66
2022-10-18T18:20:24.906Z,65.79
2022-10-18T18:25:27.691Z,66.26
2022-10-18T18:30:30.705Z,66.14
2022-10-18T18:35:33.508Z,66.86
2022-10-18T18:40:36.411Z,67.53
2022-10-18T18:45:39.707Z,68.09
2022-10-18T18:50:49.910Z,68.47
2022-10-18T18:55:52.886Z,68.28
2022-10-18T19:00:56.400Z,68.52
2022-10-18T19:06:06.905Z,69.74
2022-10-18T19:11:13.401Z,70.36
2022-10-18T19:16:28.347Z,70.34
2022-10-18T19:21:33.220Z,70.26
2022-10-18T19:26:45.303Z,70.53
2022-10-18T19:31:49.447Z,70.71
2022-10-18T19:36:52.544Z,71.33
2022-10-18T19:41:58.086Z,72.14
2022-10-18T19:47:00.935Z,72.92
2022-10-18T19:52:03.753Z,73.18
2022-10-18T19:57:06.953Z,73.29
2022-10-18T20:02:14.099Z,73.65
2022-10-18T20:07:16.904Z,73.78
2022-10-18T20:12:19.672Z,73.76
2022-10-18T20:17:22.443Z,73.81
2022-10-18T20:22:25.296Z,74.37
2022-10-18T20:27:30.617Z,74.74
2022-10-18T20:32:33.517Z,75.34
2022-10-18T20:37:36.898Z,75.47
2022-10-18T20:42:39.813Z,75.44
2022-10-18T20:47:43.034Z,76.26
2022-10-18T20:52:51.089Z,76.86
2022-10-18T20:57:53.847Z,76.62
2022-10-18T21:02:58.612Z,76.93
2022-10-18T21:08:01.482Z,77.02
2022-10-18T21:13:04.320Z,77.25
2022-10-18T21:18:07.139Z,78.03
2022-10-18T21:23:09.982Z,78.00
2022-10-18T21:28:13.536Z,78.18
2022-10-18T21:33:16.314Z,78.46
2022-10-18T21:38:19.136Z,78.85
2022-10-18T21:43:21.692Z,79.49
2022-10-18T21:48:24.504Z,79.35
2022-10-18T21:53:27.297Z,79.72
2022-10-18T21:58:30.015Z,80.30
2022-10-18T22:03:32.801Z,80.25
2022-10-18T22:08:36.079Z,80.30
2022-10-18T22:13:38.745Z,80.30
2022-10-18T22:18:42.643Z,80.44
2022-10-18T22:23:53.171Z,80.28
2022-10-18T22:28:57.153Z,80.11
2022-10-18T22:34:03.159Z,79.90
2022-10-18T22:39:06.631Z,79.73
2022-10-18T22:44:14.953Z,79.85
2022-10-18T22:49:18.292Z,79.38
2022-10-18T22:54:21.181Z,79.83
2022-10-18T22:59:23.887Z,80.10
2022-10-18T23:04:26.795Z,80.55
2022-10-18T23:09:29.719Z,80.37
2022-10-18T23:14:32.566Z,80.42
2022-10-18T23:19:35.505Z,80.22
2022-10-18T23:24:38.326Z,79.99
2022-10-18T23:29:41.142Z,79.98
2022-10-18T23:34:44.111Z,79.83
2022-10-18T23:39:46.874Z,80.03
2022-10-18T23:44:49.665Z,80.38
2022-10-18T23:49:53.258Z,80.67
2022-10-18T23:54:56.042Z,81.24
2022-10-18T23:59:58.774Z,81.57
